sensor_id;sensor_type;location;lat;lon;timestamp;P1;durP1;ratioP1;P2;durP2;ratioP2
22298;SDS011;11317;51.072;17.036;2023-04-06T00:01:58;54.08;;;23.05;;
22298;SDS011;11317;51.072;17.036;2023-04-06T00:04:25;60.65;;;24.33;;
22298;SDS011;11317;51.072;17.036;2023-04-06T00:06:51;62.65;;;26.02;;
22298;SDS011;11317;51.072;17.036;2023-04-06T00:09:17;57.83;;;25.67;;
22298;SDS011;11317;51.072;17.036;2023-04-06T00:11:43;58.67;;;27.02;;
22298;SDS011;11317;51.072;17.036;2023-04-06T00:14:10;72.78;;;25.80;;
22298;SDS011;11317;51.072;17.036;2023-04-06T00:16:36;85.28;;;30.65;;
22298;SDS011;11317;51.072;17.036;2023-04-06T00:19:02;89.55;;;34.05;;
22298;SDS011;11317;51.072;17.036;2023-04-06T00:21:28;65.93;;;25.60;;
22298;SDS011;11317;51.072;17.036;2023-04-06T00:23:56;80.43;;;30.42;;
22298;SDS011;11317;51.072;17.036;2023-04-06T00:26:21;86.43;;;35.28;;
22298;SDS011;11317;51.072;17.036;2023-04-06T00:28:48;81.63;;;31.60;;
22298;SDS011;11317;51.072;17.036;2023-04-06T00:31:15;73.10;;;29.95;;
22298;SDS011;11317;51.072;17.036;2023-04-06T00:33:41;83.78;;;30.77;;
22298;SDS011;11317;51.072;17.036;2023-04-06T00:36:07;64.53;;;28.23;;
22298;SDS011;11317;51.072;17.036;2023-04-06T00:38:33;69.57;;;27.08;;
22298;SDS011;11317;51.072;17.036;2023-04-06T00:40:59;69.50;;;30.15;;
22298;SDS011;11317;51.072;17.036;2023-04-06T00:43:25;75.13;;;27.58;;
22298;SDS011;11317;51.072;17.036;2023-04-06T00:45:52;78.75;;;30.05;;
22298;SDS011;11317;51.072;17.036;2023-04-06T00:48:18;72.45;;;27.90;;
22298;SDS011;11317;51.072;17.036;2023-04-06T00:50:44;63.40;;;27.80;;
22298;SDS011;11317;51.072;17.036;2023-04-06T00:53:10;64.18;;;25.02;;
22298;SDS011;11317;51.072;17.036;2023-04-06T00:55:36;56.17;;;25.02;;
22298;SDS011;11317;51.072;17.036;2023-04-06T00:58:02;58.00;;;23.95;;
22298;SDS011;11317;51.072;17.036;2023-04-06T01:00:29;58.30;;;24.25;;
22298;SDS011;11317;51.072;17.036;2023-04-06T01:02:55;50.47;;;23.52;;
22298;SDS011;11317;51.072;17.036;2023-04-06T01:05:21;56.30;;;24.08;;
22298;SDS011;11317;51.072;17.036;2023-04-06T01:07:47;59.40;;;25.52;;
22298;SDS011;11317;51.072;17.036;2023-04-06T01:10:23;54.53;;;23.02;;
22298;SDS011;11317;51.072;17.036;2023-04-06T01:12:49;58.47;;;25.02;;
22298;SDS011;11317;51.072;17.036;2023-04-06T01:15:15;58.53;;;24.63;;
22298;SDS011;11317;51.072;17.036;2023-04-06T01:17:41;53.33;;;23.83;;
22298;SDS011;11317;51.072;17.036;2023-04-06T01:20:07;58.08;;;25.05;;
22298;SDS011;11317;51.072;17.036;2023-04-06T01:22:33;62.40;;;27.15;;
22298;SDS011;11317;51.072;17.036;2023-04-06T01:24:59;58.45;;;24.88;;
22298;SDS011;11317;51.072;17.036;2023-04-06T01:27:25;58.55;;;25.27;;
22298;SDS011;11317;51.072;17.036;2023-04-06T01:29:53;55.88;;;25.98;;
22298;SDS011;11317;51.072;17.036;2023-04-06T01:32:19;61.08;;;25.70;;
22298;SDS011;11317;51.072;17.036;2023-04-06T01:34:45;58.40;;;26.05;;
22298;SDS011;11317;51.072;17.036;2023-04-06T01:37:12;64.57;;;23.38;;
22298;SDS011;11317;51.072;17.036;2023-04-06T01:39:37;58.40;;;24.33;;
22298;SDS011;11317;51.072;17.036;2023-04-06T01:42:03;55.08;;;26.25;;
22298;SDS011;11317;51.072;17.036;2023-04-06T01:44:29;59.78;;;25.00;;
22298;SDS011;11317;51.072;17.036;2023-04-06T01:46:56;64.28;;;22.73;;
22298;SDS011;11317;51.072;17.036;2023-04-06T01:49:22;55.50;;;23.67;;
22298;SDS011;11317;51.072;17.036;2023-04-06T01:51:48;47.65;;;22.55;;
22298;SDS011;11317;51.072;17.036;2023-04-06T01:54:14;57.67;;;23.88;;
22298;SDS011;11317;51.072;17.036;2023-04-06T01:56:40;60.95;;;26.20;;
22298;SDS011;11317;51.072;17.036;2023-04-06T01:59:07;56.38;;;23.10;;
22298;SDS011;11317;51.072;17.036;2023-04-06T02:01:33;43.63;;;22.35;;
22298;SDS011;11317;51.072;17.036;2023-04-06T02:03:59;53.28;;;24.35;;
22298;SDS011;11317;51.072;17.036;2023-04-06T02:06:25;49.30;;;24.52;;
22298;SDS011;11317;51.072;17.036;2023-04-06T02:08:51;54.08;;;23.20;;
22298;SDS011;11317;51.072;17.036;2023-04-06T02:11:17;48.25;;;24.48;;
22298;SDS011;11317;51.072;17.036;2023-04-06T02:13:43;47.22;;;22.88;;
22298;SDS011;11317;51.072;17.036;2023-04-06T02:16:09;47.50;;;21.90;;
22298;SDS011;11317;51.072;17.036;2023-04-06T02:18:35;53.60;;;23.85;;
22298;SDS011;11317;51.072;17.036;2023-04-06T02:21:01;46.47;;;21.10;;
22298;SDS011;11317;51.072;17.036;2023-04-06T02:23:27;51.55;;;22.05;;
22298;SDS011;11317;51.072;17.036;2023-04-06T02:25:53;48.72;;;22.63;;
22298;SDS011;11317;51.072;17.036;2023-04-06T02:28:20;47.08;;;24.10;;
22298;SDS011;11317;51.072;17.036;2023-04-06T02:30:46;45.95;;;22.23;;
22298;SDS011;11317;51.072;17.036;2023-04-06T02:33:12;52.20;;;21.10;;
22298;SDS011;11317;51.072;17.036;2023-04-06T02:35:38;50.47;;;23.00;;
22298;SDS011;11317;51.072;17.036;2023-04-06T02:38:04;45.17;;;23.02;;
22298;SDS011;11317;51.072;17.036;2023-04-06T02:40:30;52.35;;;23.98;;
22298;SDS011;11317;51.072;17.036;2023-04-06T02:42:56;52.90;;;22.25;;
22298;SDS011;11317;51.072;17.036;2023-04-06T02:45:22;47.92;;;23.15;;
22298;SDS011;11317;51.072;17.036;2023-04-06T02:47:48;60.30;;;22.63;;
22298;SDS011;11317;51.072;17.036;2023-04-06T02:50:14;49.45;;;22.30;;
22298;SDS011;11317;51.072;17.036;2023-04-06T02:52:40;50.60;;;23.77;;
22298;SDS011;11317;51.072;17.036;2023-04-06T02:55:07;51.53;;;25.15;;
22298;SDS011;11317;51.072;17.036;2023-04-06T02:57:33;50.60;;;22.48;;
22298;SDS011;11317;51.072;17.036;2023-04-06T02:59:59;58.63;;;23.20;;
22298;SDS011;11317;51.072;17.036;2023-04-06T03:02:25;49.45;;;22.27;;
22298;SDS011;11317;51.072;17.036;2023-04-06T03:04:51;51.38;;;22.88;;
22298;SDS011;11317;51.072;17.036;2023-04-06T03:07:17;48.30;;;21.58;;
22298;SDS011;11317;51.072;17.036;2023-04-06T03:09:43;43.10;;;22.70;;
22298;SDS011;11317;51.072;17.036;2023-04-06T03:12:09;47.63;;;22.30;;
22298;SDS011;11317;51.072;17.036;2023-04-06T03:14:35;44.35;;;21.35;;
22298;SDS011;11317;51.072;17.036;2023-04-06T03:17:01;55.70;;;23.20;;
22298;SDS011;11317;51.072;17.036;2023-04-06T03:19:27;54.95;;;23.77;;
22298;SDS011;11317;51.072;17.036;2023-04-06T03:21:53;74.25;;;28.15;;
22298;SDS011;11317;51.072;17.036;2023-04-06T03:24:19;80.28;;;28.42;;
22298;SDS011;11317;51.072;17.036;2023-04-06T03:26:45;84.45;;;31.17;;
22298;SDS011;11317;51.072;17.036;2023-04-06T03:29:11;80.20;;;30.88;;
22298;SDS011;11317;51.072;17.036;2023-04-06T03:31:38;74.78;;;28.58;;
22298;SDS011;11317;51.072;17.036;2023-04-06T03:34:04;77.05;;;30.70;;
22298;SDS011;11317;51.072;17.036;2023-04-06T03:36:30;93.88;;;34.65;;
22298;SDS011;11317;51.072;17.036;2023-04-06T03:38:56;113.18;;;36.92;;
22298;SDS011;11317;51.072;17.036;2023-04-06T03:41:22;108.28;;;39.42;;
22298;SDS011;11317;51.072;17.036;2023-04-06T03:43:48;101.97;;;35.63;;
22298;SDS011;11317;51.072;17.036;2023-04-06T03:46:15;130.57;;;36.15;;
22298;SDS011;11317;51.072;17.036;2023-04-06T03:48:40;120.93;;;40.15;;
22298;SDS011;11317;51.072;17.036;2023-04-06T03:51:06;143.38;;;43.10;;
22298;SDS011;11317;51.072;17.036;2023-04-06T03:53:33;131.45;;;43.80;;
22298;SDS011;11317;51.072;17.036;2023-04-06T03:55:59;152.10;;;45.58;;
22298;SDS011;11317;51.072;17.036;2023-04-06T03:58:25;120.85;;;42.22;;
22298;SDS011;11317;51.072;17.036;2023-04-06T04:00:51;126.20;;;43.45;;
22298;SDS011;11317;51.072;17.036;2023-04-06T04:03:17;149.45;;;43.50;;
22298;SDS011;11317;51.072;17.036;2023-04-06T04:05:43;118.68;;;42.13;;
22298;SDS011;11317;51.072;17.036;2023-04-06T04:08:09;100.15;;;36.70;;
22298;SDS011;11317;51.072;17.036;2023-04-06T04:10:35;104.40;;;35.47;;
22298;SDS011;11317;51.072;17.036;2023-04-06T04:13:01;99.05;;;38.92;;
22298;SDS011;11317;51.072;17.036;2023-04-06T04:15:27;101.43;;;33.55;;
22298;SDS011;11317;51.072;17.036;2023-04-06T04:17:53;93.55;;;34.45;;
22298;SDS011;11317;51.072;17.036;2023-04-06T04:20:20;86.95;;;33.17;;
22298;SDS011;11317;51.072;17.036;2023-04-06T04:22:46;87.43;;;32.92;;
22298;SDS011;11317;51.072;17.036;2023-04-06T04:25:13;76.15;;;30.13;;
22298;SDS011;11317;51.072;17.036;2023-04-06T04:27:39;111.10;;;31.38;;
22298;SDS011;11317;51.072;17.036;2023-04-06T04:30:05;87.13;;;29.98;;
22298;SDS011;11317;51.072;17.036;2023-04-06T04:32:31;75.22;;;27.88;;
22298;SDS011;11317;51.072;17.036;2023-04-06T04:34:57;89.30;;;29.40;;
22298;SDS011;11317;51.072;17.036;2023-04-06T04:37:23;70.15;;;25.95;;
22298;SDS011;11317;51.072;17.036;2023-04-06T04:39:50;62.13;;;25.10;;
22298;SDS011;11317;51.072;17.036;2023-04-06T04:42:16;65.35;;;24.08;;
22298;SDS011;11317;51.072;17.036;2023-04-06T04:44:42;72.47;;;25.35;;
22298;SDS011;11317;51.072;17.036;2023-04-06T04:47:07;73.47;;;27.77;;
22298;SDS011;11317;51.072;17.036;2023-04-06T04:49:33;53.15;;;21.20;;
22298;SDS011;11317;51.072;17.036;2023-04-06T04:51:59;66.50;;;24.15;;
22298;SDS011;11317;51.072;17.036;2023-04-06T04:54:25;59.47;;;23.55;;
22298;SDS011;11317;51.072;17.036;2023-04-06T04:56:52;53.58;;;24.00;;
22298;SDS011;11317;51.072;17.036;2023-04-06T04:59:18;60.40;;;25.95;;
22298;SDS011;11317;51.072;17.036;2023-04-06T05:01:44;51.65;;;24.38;;
22298;SDS011;11317;51.072;17.036;2023-04-06T05:04:10;57.97;;;24.73;;
22298;SDS011;11317;51.072;17.036;2023-04-06T05:06:36;63.35;;;24.73;;
22298;SDS011;11317;51.072;17.036;2023-04-06T05:09:02;60.75;;;23.67;;
22298;SDS011;11317;51.072;17.036;2023-04-06T05:11:28;67.38;;;24.80;;
22298;SDS011;11317;51.072;17.036;2023-04-06T05:13:54;54.45;;;25.13;;
22298;SDS011;11317;51.072;17.036;2023-04-06T05:16:20;64.05;;;27.27;;
22298;SDS011;11317;51.072;17.036;2023-04-06T05:18:47;64.40;;;26.73;;
22298;SDS011;11317;51.072;17.036;2023-04-06T05:21:13;54.80;;;25.42;;
22298;SDS011;11317;51.072;17.036;2023-04-06T05:23:39;59.15;;;25.50;;
22298;SDS011;11317;51.072;17.036;2023-04-06T05:26:05;57.10;;;25.10;;
22298;SDS011;11317;51.072;17.036;2023-04-06T05:28:32;66.07;;;26.38;;
22298;SDS011;11317;51.072;17.036;2023-04-06T05:30:58;55.03;;;23.88;;
22298;SDS011;11317;51.072;17.036;2023-04-06T05:33:24;69.82;;;28.45;;
22298;SDS011;11317;51.072;17.036;2023-04-06T05:35:50;60.55;;;28.50;;
22298;SDS011;11317;51.072;17.036;2023-04-06T05:38:16;60.67;;;25.08;;
22298;SDS011;11317;51.072;17.036;2023-04-06T05:40:42;58.33;;;24.00;;
22298;SDS011;11317;51.072;17.036;2023-04-06T05:43:08;50.65;;;23.08;;
22298;SDS011;11317;51.072;17.036;2023-04-06T05:45:34;47.58;;;20.85;;
22298;SDS011;11317;51.072;17.036;2023-04-06T05:48:01;54.53;;;23.02;;
22298;SDS011;11317;51.072;17.036;2023-04-06T05:50:27;54.45;;;22.10;;
22298;SDS011;11317;51.072;17.036;2023-04-06T05:52:54;49.67;;;22.90;;
22298;SDS011;11317;51.072;17.036;2023-04-06T05:55:20;49.15;;;22.33;;
22298;SDS011;11317;51.072;17.036;2023-04-06T05:57:46;51.47;;;22.33;;
22298;SDS011;11317;51.072;17.036;2023-04-06T06:00:12;44.47;;;21.73;;
22298;SDS011;11317;51.072;17.036;2023-04-06T06:02:39;47.05;;;21.00;;
22298;SDS011;11317;51.072;17.036;2023-04-06T06:05:07;46.47;;;21.33;;
22298;SDS011;11317;51.072;17.036;2023-04-06T06:07:34;51.15;;;21.55;;
22298;SDS011;11317;51.072;17.036;2023-04-06T06:10:00;48.50;;;22.35;;
22298;SDS011;11317;51.072;17.036;2023-04-06T06:12:26;52.22;;;22.92;;
22298;SDS011;11317;51.072;17.036;2023-04-06T06:14:53;52.15;;;22.63;;
22298;SDS011;11317;51.072;17.036;2023-04-06T06:17:19;43.00;;;20.77;;
22298;SDS011;11317;51.072;17.036;2023-04-06T06:19:45;38.38;;;19.75;;
22298;SDS011;11317;51.072;17.036;2023-04-06T06:22:11;47.70;;;21.90;;
22298;SDS011;11317;51.072;17.036;2023-04-06T06:24:37;49.13;;;21.38;;
22298;SDS011;11317;51.072;17.036;2023-04-06T06:27:03;41.40;;;20.00;;
22298;SDS011;11317;51.072;17.036;2023-04-06T06:29:29;45.58;;;19.67;;
22298;SDS011;11317;51.072;17.036;2023-04-06T06:31:55;38.65;;;19.42;;
22298;SDS011;11317;51.072;17.036;2023-04-06T06:34:21;42.60;;;19.17;;
22298;SDS011;11317;51.072;17.036;2023-04-06T06:36:48;43.60;;;20.08;;
22298;SDS011;11317;51.072;17.036;2023-04-06T06:39:14;36.17;;;18.95;;
22298;SDS011;11317;51.072;17.036;2023-04-06T06:41:40;34.35;;;18.35;;
22298;SDS011;11317;51.072;17.036;2023-04-06T06:44:05;41.28;;;18.65;;
22298;SDS011;11317;51.072;17.036;2023-04-06T06:46:32;44.28;;;21.02;;
22298;SDS011;11317;51.072;17.036;2023-04-06T06:48:58;42.42;;;20.17;;
22298;SDS011;11317;51.072;17.036;2023-04-06T06:51:25;41.75;;;19.95;;
22298;SDS011;11317;51.072;17.036;2023-04-06T06:53:51;38.10;;;18.70;;
22298;SDS011;11317;51.072;17.036;2023-04-06T06:56:17;38.67;;;17.95;;
22298;SDS011;11317;51.072;17.036;2023-04-06T06:58:43;38.17;;;16.80;;
22298;SDS011;11317;51.072;17.036;2023-04-06T07:01:10;37.65;;;17.00;;
22298;SDS011;11317;51.072;17.036;2023-04-06T07:03:36;34.60;;;16.75;;
22298;SDS011;11317;51.072;17.036;2023-04-06T07:06:02;35.08;;;17.80;;
22298;SDS011;11317;51.072;17.036;2023-04-06T07:08:28;35.47;;;17.20;;
22298;SDS011;11317;51.072;17.036;2023-04-06T07:10:55;31.67;;;16.83;;
22298;SDS011;11317;51.072;17.036;2023-04-06T07:13:21;27.00;;;15.70;;
22298;SDS011;11317;51.072;17.036;2023-04-06T07:15:51;34.08;;;16.23;;
22298;SDS011;11317;51.072;17.036;2023-04-06T07:18:17;30.70;;;16.38;;
22298;SDS011;11317;51.072;17.036;2023-04-06T07:20:44;28.88;;;15.50;;
22298;SDS011;11317;51.072;17.036;2023-04-06T07:23:10;29.33;;;15.75;;
22298;SDS011;11317;51.072;17.036;2023-04-06T07:25:36;28.42;;;15.18;;
22298;SDS011;11317;51.072;17.036;2023-04-06T07:28:03;31.73;;;15.80;;
22298;SDS011;11317;51.072;17.036;2023-04-06T07:30:29;24.70;;;14.75;;
22298;SDS011;11317;51.072;17.036;2023-04-06T07:32:55;24.30;;;13.63;;
22298;SDS011;11317;51.072;17.036;2023-04-06T07:35:25;28.92;;;16.42;;
22298;SDS011;11317;51.072;17.036;2023-04-06T07:37:52;26.77;;;16.92;;
22298;SDS011;11317;51.072;17.036;2023-04-06T07:40:18;23.80;;;16.08;;
22298;SDS011;11317;51.072;17.036;2023-04-06T07:42:45;27.90;;;17.20;;
22298;SDS011;11317;51.072;17.036;2023-04-06T07:45:11;30.33;;;17.90;;
22298;SDS011;11317;51.072;17.036;2023-04-06T07:47:37;31.38;;;17.52;;
22298;SDS011;11317;51.072;17.036;2023-04-06T07:50:03;22.77;;;15.77;;
22298;SDS011;11317;51.072;17.036;2023-04-06T07:52:30;23.52;;;14.82;;
22298;SDS011;11317;51.072;17.036;2023-04-06T07:54:59;23.20;;;14.05;;
22298;SDS011;11317;51.072;17.036;2023-04-06T07:57:25;19.95;;;12.43;;
22298;SDS011;11317;51.072;17.036;2023-04-06T07:59:51;22.33;;;13.52;;
22298;SDS011;11317;51.072;17.036;2023-04-06T08:02:18;18.33;;;10.43;;
22298;SDS011;11317;51.072;17.036;2023-04-06T08:04:44;23.70;;;10.65;;
22298;SDS011;11317;51.072;17.036;2023-04-06T08:07:10;16.60;;;9.55;;
22298;SDS011;11317;51.072;17.036;2023-04-06T08:09:37;17.85;;;10.07;;
22298;SDS011;11317;51.072;17.036;2023-04-06T08:12:03;13.90;;;9.45;;
22298;SDS011;11317;51.072;17.036;2023-04-06T08:14:29;14.43;;;7.82;;
22298;SDS011;11317;51.072;17.036;2023-04-06T08:16:56;15.50;;;9.50;;
22298;SDS011;11317;51.072;17.036;2023-04-06T08:19:22;18.95;;;8.30;;
22298;SDS011;11317;51.072;17.036;2023-04-06T08:21:48;14.20;;;8.27;;
22298;SDS011;11317;51.072;17.036;2023-04-06T08:24:16;15.40;;;8.15;;
22298;SDS011;11317;51.072;17.036;2023-04-06T08:26:42;16.20;;;7.95;;
22298;SDS011;11317;51.072;17.036;2023-04-06T08:29:08;12.00;;;7.25;;
22298;SDS011;11317;51.072;17.036;2023-04-06T08:31:35;10.32;;;6.75;;
22298;SDS011;11317;51.072;17.036;2023-04-06T08:34:02;12.95;;;7.43;;
22298;SDS011;11317;51.072;17.036;2023-04-06T08:36:30;10.85;;;7.07;;
22298;SDS011;11317;51.072;17.036;2023-04-06T08:38:56;14.07;;;7.85;;
22298;SDS011;11317;51.072;17.036;2023-04-06T08:41:22;12.68;;;7.70;;
22298;SDS011;11317;51.072;17.036;2023-04-06T08:43:49;16.67;;;9.07;;
22298;SDS011;11317;51.072;17.036;2023-04-06T08:46:21;11.27;;;6.50;;
22298;SDS011;11317;51.072;17.036;2023-04-06T08:48:47;11.48;;;7.10;;
22298;SDS011;11317;51.072;17.036;2023-04-06T08:51:15;10.43;;;7.00;;
22298;SDS011;11317;51.072;17.036;2023-04-06T08:53:41;8.60;;;5.97;;
22298;SDS011;11317;51.072;17.036;2023-04-06T08:56:07;8.40;;;5.53;;
22298;SDS011;11317;51.072;17.036;2023-04-06T08:58:35;11.50;;;6.45;;
22298;SDS011;11317;51.072;17.036;2023-04-06T09:01:05;9.95;;;7.22;;
22298;SDS011;11317;51.072;17.036;2023-04-06T09:03:33;13.18;;;7.57;;
22298;SDS011;11317;51.072;17.036;2023-04-06T09:06:05;10.07;;;6.50;;
22298;SDS011;11317;51.072;17.036;2023-04-06T09:08:32;10.05;;;6.38;;
22298;SDS011;11317;51.072;17.036;2023-04-06T09:11:00;11.82;;;6.68;;
22298;SDS011;11317;51.072;17.036;2023-04-06T09:13:26;13.93;;;7.38;;
22298;SDS011;11317;51.072;17.036;2023-04-06T09:15:59;14.95;;;6.80;;
22298;SDS011;11317;51.072;17.036;2023-04-06T09:18:31;10.82;;;6.03;;
22298;SDS011;11317;51.072;17.036;2023-04-06T09:21:01;10.60;;;6.27;;
22298;SDS011;11317;51.072;17.036;2023-04-06T09:23:28;10.65;;;7.22;;
22298;SDS011;11317;51.072;17.036;2023-04-06T09:26:10;11.45;;;6.07;;
22298;SDS011;11317;51.072;17.036;2023-04-06T09:33:50;8.00;;;5.90;;
22298;SDS011;11317;51.072;17.036;2023-04-06T09:36:17;9.48;;;5.80;;
22298;SDS011;11317;51.072;17.036;2023-04-06T09:38:53;8.98;;;6.65;;
22298;SDS011;11317;51.072;17.036;2023-04-06T09:41:27;11.63;;;6.75;;
22298;SDS011;11317;51.072;17.036;2023-04-06T09:46:30;10.10;;;6.22;;
22298;SDS011;11317;51.072;17.036;2023-04-06T09:48:57;7.68;;;5.28;;
22298;SDS011;11317;51.072;17.036;2023-04-06T09:51:24;7.53;;;4.90;;
22298;SDS011;11317;51.072;17.036;2023-04-06T09:53:52;7.72;;;4.72;;
22298;SDS011;11317;51.072;17.036;2023-04-06T09:56:20;12.30;;;5.22;;
22298;SDS011;11317;51.072;17.036;2023-04-06T09:58:46;7.97;;;4.72;;
22298;SDS011;11317;51.072;17.036;2023-04-06T10:01:15;6.15;;;4.35;;
22298;SDS011;11317;51.072;17.036;2023-04-06T10:06:15;8.18;;;4.15;;
22298;SDS011;11317;51.072;17.036;2023-04-06T10:08:43;7.30;;;4.43;;
22298;SDS011;11317;51.072;17.036;2023-04-06T10:11:11;6.47;;;3.80;;
22298;SDS011;11317;51.072;17.036;2023-04-06T10:13:37;7.20;;;4.55;;
22298;SDS011;11317;51.072;17.036;2023-04-06T10:16:03;6.80;;;4.35;;
22298;SDS011;11317;51.072;17.036;2023-04-06T10:18:30;6.82;;;4.38;;
22298;SDS011;11317;51.072;17.036;2023-04-06T10:21:06;7.00;;;4.65;;
22298;SDS011;11317;51.072;17.036;2023-04-06T10:23:39;7.43;;;5.57;;
22298;SDS011;11317;51.072;17.036;2023-04-06T10:26:11;8.63;;;5.55;;
22298;SDS011;11317;51.072;17.036;2023-04-06T10:28:40;9.05;;;5.50;;
22298;SDS011;11317;51.072;17.036;2023-04-06T10:31:07;9.95;;;5.00;;
22298;SDS011;11317;51.072;17.036;2023-04-06T10:33:33;8.98;;;4.80;;
22298;SDS011;11317;51.072;17.036;2023-04-06T10:36:09;6.50;;;4.60;;
22298;SDS011;11317;51.072;17.036;2023-04-06T10:38:39;5.57;;;4.30;;
22298;SDS011;11317;51.072;17.036;2023-04-06T10:41:06;6.78;;;4.30;;
22298;SDS011;11317;51.072;17.036;2023-04-06T10:43:34;6.20;;;3.90;;
22298;SDS011;11317;51.072;17.036;2023-04-06T10:46:01;6.30;;;4.35;;
22298;SDS011;11317;51.072;17.036;2023-04-06T10:48:37;7.85;;;4.72;;
22298;SDS011;11317;51.072;17.036;2023-04-06T10:51:11;10.32;;;4.35;;
22298;SDS011;11317;51.072;17.036;2023-04-06T10:53:37;6.13;;;4.30;;
22298;SDS011;11317;51.072;17.036;2023-04-06T10:56:04;8.80;;;4.47;;
22298;SDS011;11317;51.072;17.036;2023-04-06T10:58:30;5.60;;;4.10;;
22298;SDS011;11317;51.072;17.036;2023-04-06T11:00:57;9.30;;;4.93;;
22298;SDS011;11317;51.072;17.036;2023-04-06T11:03:24;5.28;;;3.90;;
22298;SDS011;11317;51.072;17.036;2023-04-06T11:05:52;4.88;;;3.50;;
22298;SDS011;11317;51.072;17.036;2023-04-06T11:08:22;6.80;;;3.60;;
22298;SDS011;11317;51.072;17.036;2023-04-06T11:10:48;4.95;;;3.60;;
22298;SDS011;11317;51.072;17.036;2023-04-06T11:13:14;5.70;;;3.90;;
22298;SDS011;11317;51.072;17.036;2023-04-06T11:15:41;5.45;;;3.85;;
22298;SDS011;11317;51.072;17.036;2023-04-06T11:18:07;8.43;;;4.53;;
22298;SDS011;11317;51.072;17.036;2023-04-06T11:20:33;7.93;;;3.95;;
22298;SDS011;11317;51.072;17.036;2023-04-06T11:22:59;7.63;;;3.95;;
22298;SDS011;11317;51.072;17.036;2023-04-06T11:25:26;4.82;;;3.85;;
22298;SDS011;11317;51.072;17.036;2023-04-06T11:27:54;6.03;;;3.88;;
22298;SDS011;11317;51.072;17.036;2023-04-06T11:30:21;7.80;;;4.47;;
22298;SDS011;11317;51.072;17.036;2023-04-06T11:32:47;5.55;;;3.70;;
22298;SDS011;11317;51.072;17.036;2023-04-06T11:35:22;6.57;;;3.85;;
22298;SDS011;11317;51.072;17.036;2023-04-06T11:37:49;5.40;;;3.72;;
22298;SDS011;11317;51.072;17.036;2023-04-06T11:40:20;7.28;;;4.47;;
22298;SDS011;11317;51.072;17.036;2023-04-06T11:42:54;8.70;;;5.00;;
22298;SDS011;11317;51.072;17.036;2023-04-06T11:45:21;7.32;;;4.65;;
22298;SDS011;11317;51.072;17.036;2023-04-06T11:47:54;6.25;;;4.32;;
22298;SDS011;11317;51.072;17.036;2023-04-06T11:50:24;8.25;;;4.50;;
22298;SDS011;11317;51.072;17.036;2023-04-06T11:52:59;8.63;;;4.25;;
22298;SDS011;11317;51.072;17.036;2023-04-06T11:55:26;5.55;;;3.88;;
22298;SDS011;11317;51.072;17.036;2023-04-06T11:57:52;8.57;;;4.60;;
22298;SDS011;11317;51.072;17.036;2023-04-06T12:00:18;8.60;;;4.68;;
22298;SDS011;11317;51.072;17.036;2023-04-06T12:02:46;5.60;;;3.88;;
22298;SDS011;11317;51.072;17.036;2023-04-06T12:05:12;7.63;;;4.30;;
22298;SDS011;11317;51.072;17.036;2023-04-06T12:07:38;8.13;;;4.30;;
22298;SDS011;11317;51.072;17.036;2023-04-06T12:10:05;6.47;;;4.60;;
22298;SDS011;11317;51.072;17.036;2023-04-06T12:12:31;7.20;;;4.03;;
22298;SDS011;11317;51.072;17.036;2023-04-06T12:14:57;7.43;;;4.35;;
22298;SDS011;11317;51.072;17.036;2023-04-06T12:17:24;6.22;;;4.80;;
22298;SDS011;11317;51.072;17.036;2023-04-06T12:19:50;7.30;;;4.72;;
22298;SDS011;11317;51.072;17.036;2023-04-06T12:22:17;9.45;;;4.95;;
22298;SDS011;11317;51.072;17.036;2023-04-06T12:24:43;12.25;;;4.65;;
22298;SDS011;11317;51.072;17.036;2023-04-06T12:27:09;8.35;;;4.88;;
22298;SDS011;11317;51.072;17.036;2023-04-06T12:29:37;8.13;;;4.55;;
22298;SDS011;11317;51.072;17.036;2023-04-06T12:32:03;7.22;;;4.88;;
22298;SDS011;11317;51.072;17.036;2023-04-06T12:34:30;10.73;;;4.95;;
22298;SDS011;11317;51.072;17.036;2023-04-06T12:36:56;8.23;;;5.10;;
22298;SDS011;11317;51.072;17.036;2023-04-06T12:39:22;8.40;;;5.60;;
22298;SDS011;11317;51.072;17.036;2023-04-06T12:41:49;10.40;;;5.53;;
22298;SDS011;11317;51.072;17.036;2023-04-06T12:44:15;7.28;;;5.05;;
22298;SDS011;11317;51.072;17.036;2023-04-06T12:46:41;7.90;;;5.20;;
22298;SDS011;11317;51.072;17.036;2023-04-06T12:49:08;10.20;;;5.07;;
22298;SDS011;11317;51.072;17.036;2023-04-06T12:51:35;7.95;;;5.47;;
22298;SDS011;11317;51.072;17.036;2023-04-06T12:54:01;8.35;;;4.90;;
22298;SDS011;11317;51.072;17.036;2023-04-06T12:56:27;11.18;;;5.05;;
22298;SDS011;11317;51.072;17.036;2023-04-06T12:58:53;7.30;;;4.80;;
22298;SDS011;11317;51.072;17.036;2023-04-06T13:01:19;8.90;;;5.25;;
22298;SDS011;11317;51.072;17.036;2023-04-06T13:03:46;9.57;;;5.45;;
22298;SDS011;11317;51.072;17.036;2023-04-06T13:06:12;6.93;;;4.65;;
22298;SDS011;11317;51.072;17.036;2023-04-06T13:08:39;9.60;;;4.53;;
22298;SDS011;11317;51.072;17.036;2023-04-06T13:11:06;8.15;;;4.93;;
22298;SDS011;11317;51.072;17.036;2023-04-06T13:13:35;7.60;;;4.60;;
22298;SDS011;11317;51.072;17.036;2023-04-06T13:16:03;6.00;;;4.38;;
22298;SDS011;11317;51.072;17.036;2023-04-06T13:18:30;5.65;;;4.38;;
22298;SDS011;11317;51.072;17.036;2023-04-06T13:20:57;6.95;;;4.82;;
22298;SDS011;11317;51.072;17.036;2023-04-06T13:23:24;6.45;;;4.30;;
22298;SDS011;11317;51.072;17.036;2023-04-06T13:25:57;11.00;;;4.75;;
22298;SDS011;11317;51.072;17.036;2023-04-06T13:28:24;6.63;;;4.20;;
22298;SDS011;11317;51.072;17.036;2023-04-06T13:30:51;6.13;;;3.92;;
22298;SDS011;11317;51.072;17.036;2023-04-06T13:33:17;6.40;;;4.35;;
22298;SDS011;11317;51.072;17.036;2023-04-06T13:35:46;7.90;;;4.45;;
22298;SDS011;11317;51.072;17.036;2023-04-06T13:38:13;7.82;;;4.18;;
22298;SDS011;11317;51.072;17.036;2023-04-06T13:40:39;5.80;;;4.05;;
22298;SDS011;11317;51.072;17.036;2023-04-06T13:43:06;6.70;;;4.18;;
22298;SDS011;11317;51.072;17.036;2023-04-06T13:45:32;5.43;;;3.95;;
22298;SDS011;11317;51.072;17.036;2023-04-06T13:47:59;6.97;;;4.50;;
22298;SDS011;11317;51.072;17.036;2023-04-06T13:50:26;5.32;;;3.97;;
22298;SDS011;11317;51.072;17.036;2023-04-06T13:52:52;6.75;;;4.10;;
22298;SDS011;11317;51.072;17.036;2023-04-06T13:55:18;5.38;;;3.95;;
22298;SDS011;11317;51.072;17.036;2023-04-06T13:57:44;8.32;;;4.10;;
22298;SDS011;11317;51.072;17.036;2023-04-06T14:00:11;5.97;;;4.18;;
22298;SDS011;11317;51.072;17.036;2023-04-06T14:02:38;6.68;;;4.45;;
22298;SDS011;11317;51.072;17.036;2023-04-06T14:05:04;10.07;;;5.00;;
22298;SDS011;11317;51.072;17.036;2023-04-06T14:07:31;7.00;;;4.60;;
22298;SDS011;11317;51.072;17.036;2023-04-06T14:09:57;6.45;;;4.40;;
22298;SDS011;11317;51.072;17.036;2023-04-06T14:12:23;7.43;;;4.78;;
22298;SDS011;11317;51.072;17.036;2023-04-06T14:14:49;7.22;;;4.90;;
22298;SDS011;11317;51.072;17.036;2023-04-06T14:17:15;6.03;;;4.30;;
22298;SDS011;11317;51.072;17.036;2023-04-06T14:19:42;7.30;;;4.60;;
22298;SDS011;11317;51.072;17.036;2023-04-06T14:22:08;8.10;;;4.75;;
22298;SDS011;11317;51.072;17.036;2023-04-06T14:24:34;6.07;;;4.72;;
22298;SDS011;11317;51.072;17.036;2023-04-06T14:27:01;9.55;;;5.20;;